createdAt,value
2019-02-26T00:02:17.071Z,96824.75
2019-02-26T00:04:42.312Z,96826.36
2019-02-26T00:07:08.749Z,96828.86
2019-02-26T00:09:35.519Z,96827.59
2019-02-26T00:12:02.025Z,96817.30
2019-02-26T00:14:30.315Z,96820.73
2019-02-26T00:16:56.934Z,96821.30
2019-02-26T00:19:23.476Z,96827.05
2019-02-26T00:21:51.766Z,96823.37
2019-02-26T00:24:18.418Z,96821.83
2019-02-26T00:26:45.214Z,96818.62
2019-02-26T00:29:11.767Z,96826.35
2019-02-26T00:31:38.199Z,96819.00
2019-02-26T00:34:06.002Z,96817.86
2019-02-26T00:36:34.174Z,96815.34
2019-02-26T00:39:03.464Z,96817.15
2019-02-26T00:41:31.850Z,96819.68
2019-02-26T00:43:59.943Z,96819.70
2019-02-26T00:46:28.502Z,96812.88
2019-02-26T00:48:56.363Z,96806.00
2019-02-26T00:51:24.753Z,96809.31
2019-02-26T00:53:53.314Z,96808.63
2019-02-26T00:56:22.834Z,96810.95
2019-02-26T00:58:50.385Z,96807.91
2019-02-26T01:01:17.766Z,96807.00
2019-02-26T01:03:47.102Z,96805.98
2019-02-26T01:06:14.828Z,96802.40
2019-02-26T01:08:44.653Z,96805.77
2019-02-26T01:11:12.034Z,96801.16
2019-02-26T01:13:39.517Z,96803.80
2019-02-26T01:16:06.158Z,96804.71
2019-02-26T01:18:32.690Z,96803.27
2019-02-26T01:21:00.277Z,96802.21
2019-02-26T01:23:28.946Z,96806.22
2019-02-26T01:25:55.782Z,96807.30
2019-02-26T01:28:22.971Z,96807.39
2019-02-26T01:30:53.732Z,96811.52
2019-02-26T01:33:18.973Z,96820.80
2019-02-26T01:35:45.612Z,96817.48
2019-02-26T01:38:14.299Z,96824.05
2019-02-26T01:40:43.569Z,96817.62
2019-02-26T01:43:09.111Z,96816.16
2019-02-26T01:45:35.646Z,96805.34
2019-02-26T01:48:04.076Z,96807.77
2019-02-26T01:50:33.236Z,96811.31
2019-02-26T01:53:00.994Z,96814.84
2019-02-26T01:55:27.833Z,96823.30
2019-02-26T01:57:58.471Z,96818.28
2019-02-26T02:00:25.459Z,96813.52
2019-02-26T02:02:51.231Z,96818.13
2019-02-26T02:05:19.638Z,96816.58
2019-02-26T02:07:48.976Z,96814.55
2019-02-26T02:10:15.955Z,96809.94
2019-02-26T02:12:42.396Z,96808.97
2019-02-26T02:15:12.398Z,96811.56
2019-02-26T02:17:40.273Z,96805.41
2019-02-26T02:20:12.670Z,96807.22
2019-02-26T02:22:40.008Z,96810.59
2019-02-26T02:25:08.790Z,96805.42
2019-02-26T02:27:35.430Z,96812.52
2019-02-26T02:30:02.298Z,96805.42
2019-02-26T02:32:31.733Z,96809.19
2019-02-26T02:35:00.917Z,96814.54
2019-02-26T02:37:29.436Z,96813.77
2019-02-26T02:39:55.795Z,96812.23
2019-02-26T02:42:22.226Z,96814.91
2019-02-26T02:44:49.387Z,96808.52
2019-02-26T02:47:17.146Z,96810.89
2019-02-26T02:49:44.363Z,96810.30
2019-02-26T02:52:11.846Z,96805.79
2019-02-26T02:54:41.080Z,96796.21
2019-02-26T02:57:09.456Z,96799.40
2019-02-26T02:59:37.371Z,96804.68
2019-02-26T03:02:04.034Z,96800.98
2019-02-26T03:04:31.731Z,96797.66
2019-02-26T03:07:00.699Z,96804.34
2019-02-26T03:09:27.327Z,96803.53
2019-02-26T03:11:55.025Z,96806.84
2019-02-26T03:14:21.628Z,96806.83
2019-02-26T03:16:50.827Z,96807.11
2019-02-26T03:19:17.018Z,96807.54
2019-02-26T03:21:47.170Z,96805.30
2019-02-26T03:24:13.815Z,96809.08
2019-02-26T03:26:41.374Z,96813.03
2019-02-26T03:29:08.325Z,96802.25
2019-02-26T03:31:40.533Z,96803.65
2019-02-26T03:34:10.579Z,96799.92
2019-02-26T03:36:34.193Z,96806.87
2019-02-26T03:39:02.816Z,96811.45
2019-02-26T03:41:31.237Z,96804.27
2019-02-26T03:44:00.553Z,96805.97
2019-02-26T03:46:26.361Z,96798.71
2019-02-26T03:48:53.201Z,96799.48
2019-02-26T03:51:19.637Z,96801.97
2019-02-26T03:53:46.067Z,96798.91
2019-02-26T03:56:14.894Z,96794.69
2019-02-26T03:58:41.086Z,96799.69
2019-02-26T04:01:10.219Z,96800.77
2019-02-26T04:03:37.581Z,96802.28
2019-02-26T04:06:08.771Z,96793.73
2019-02-26T04:08:33.474Z,96791.34
2019-02-26T04:11:01.973Z,96790.59
2019-02-26T04:13:28.291Z,96786.01
2019-02-26T04:15:57.113Z,96784.75
2019-02-26T04:18:23.203Z,96785.88
2019-02-26T04:20:49.635Z,96784.94
2019-02-26T04:23:18.722Z,96781.59
2019-02-26T04:25:57.688Z,96778.84
2019-02-26T04:28:33.526Z,96775.86
2019-02-26T04:31:18.277Z,96771.55
2019-02-26T04:34:05.306Z,96780.26
2019-02-26T04:36:51.085Z,96779.09
2019-02-26T04:39:30.214Z,96781.81
2019-02-26T04:42:32.546Z,96780.33
2019-02-26T04:45:25.648Z,96782.25
2019-02-26T04:47:58.299Z,96780.05
2019-02-26T04:50:28.650Z,96780.14
2019-02-26T04:52:52.626Z,96779.66
2019-02-26T04:55:19.519Z,96779.14
2019-02-26T04:57:48.519Z,96781.58
2019-02-26T05:00:14.391Z,96786.39
2019-02-26T05:02:41.439Z,96784.25
2019-02-26T05:05:08.179Z,96781.55
2019-02-26T05:07:35.464Z,96789.19
2019-02-26T05:10:04.523Z,96789.44
2019-02-26T05:12:34.233Z,96789.33
2019-02-26T05:14:59.436Z,96783.75
2019-02-26T05:17:29.631Z,96793.13
2019-02-26T05:19:54.351Z,96785.13
2019-02-26T05:22:22.703Z,96782.87
2019-02-26T05:24:50.290Z,96779.28
2019-02-26T05:27:19.783Z,96776.71
2019-02-26T05:29:48.818Z,96773.36
2019-02-26T05:32:14.507Z,96775.90
2019-02-26T05:34:44.783Z,96776.47
2019-02-26T05:37:11.018Z,96770.63
2019-02-26T05:39:37.810Z,96767.58
2019-02-26T05:42:06.316Z,96765.52
2019-02-26T05:44:32.718Z,96759.34
2019-02-26T05:47:01.360Z,96763.31
2019-02-26T05:49:27.580Z,96759.67
2019-02-26T05:51:56.079Z,96766.18
2019-02-26T05:54:24.365Z,96767.09
2019-02-26T05:56:50.823Z,96766.52
2019-02-26T05:59:17.966Z,96769.16
2019-02-26T06:01:46.604Z,96765.51
2019-02-26T06:04:14.946Z,96761.65
2019-02-26T06:06:42.704Z,96762.89
2019-02-26T06:09:09.137Z,96772.35
2019-02-26T06:11:38.528Z,96775.84
2019-02-26T06:14:07.139Z,96775.78
2019-02-26T06:16:33.046Z,96778.09
2019-02-26T06:18:59.581Z,96781.09
2019-02-26T06:21:26.221Z,96780.64
2019-02-26T06:23:53.886Z,96782.63
2019-02-26T06:26:20.557Z,96785.24
2019-02-26T06:28:52.903Z,96781.73
2019-02-26T06:31:22.220Z,96784.06
2019-02-26T06:33:50.535Z,96785.36
2019-02-26T06:36:21.515Z,96787.41
2019-02-26T06:38:49.700Z,96788.30
2019-02-26T06:41:17.039Z,96788.19
2019-02-26T06:43:47.590Z,96795.02
2019-02-26T06:46:14.026Z,96790.47
2019-02-26T06:48:40.790Z,96796.16
2019-02-26T06:51:07.587Z,96805.03
2019-02-26T06:53:34.225Z,96801.21
2019-02-26T06:56:01.269Z,96802.64
2019-02-26T06:58:28.012Z,96804.02
2019-02-26T07:00:55.777Z,96795.89
2019-02-26T07:03:24.784Z,96794.92
2019-02-26T07:05:50.796Z,96789.63
2019-02-26T07:08:18.910Z,96796.50
2019-02-26T07:10:45.608Z,96806.55
2019-02-26T07:13:14.066Z,96792.48
2019-02-26T07:15:40.596Z,96796.22
2019-02-26T07:18:10.280Z,96801.19
2019-02-26T07:20:39.952Z,96793.55
2019-02-26T07:23:08.118Z,96799.69
2019-02-26T07:25:36.270Z,96797.11
2019-02-26T07:28:03.011Z,96799.45
2019-02-26T07:30:32.646Z,96802.59
2019-02-26T07:32:59.484Z,96807.23
2019-02-26T07:35:28.171Z,96805.05
2019-02-26T07:37:56.679Z,96806.48
2019-02-26T07:40:22.992Z,96807.72
2019-02-26T07:42:51.268Z,96810.03
2019-02-26T07:45:19.940Z,96809.59
2019-02-26T07:47:49.147Z,96803.94
2019-02-26T07:50:17.420Z,96809.70
2019-02-26T07:52:44.090Z,96813.66
2019-02-26T07:55:12.792Z,96810.80
2019-02-26T07:57:40.549Z,96813.73
2019-02-26T08:00:11.969Z,96811.46
2019-02-26T08:02:38.503Z,96814.56
2019-02-26T08:05:05.752Z,96819.57
2019-02-26T08:07:32.289Z,96826.42
2019-02-26T08:09:58.827Z,96829.44
2019-02-26T08:12:25.258Z,96836.66
2019-02-26T08:14:51.800Z,96847.19
2019-02-26T08:17:18.330Z,96846.45
2019-02-26T08:19:46.858Z,96843.84
2019-02-26T08:22:13.140Z,96849.23
2019-02-26T08:24:39.984Z,96844.31
2019-02-26T08:27:08.537Z,96837.14
2019-02-26T08:29:36.202Z,96835.47
2019-02-26T08:32:03.074Z,96832.37
2019-02-26T08:34:29.917Z,96839.25
2019-02-26T08:36:56.351Z,96831.19
2019-02-26T08:39:23.194Z,96833.47
2019-02-26T08:42:01.300Z,96832.83
2019-02-26T08:44:28.220Z,96837.25
2019-02-26T08:46:54.986Z,96835.20
2019-02-26T08:49:22.529Z,96838.17
2019-02-26T08:51:49.184Z,96835.98
2019-02-26T08:54:20.789Z,96838.25
2019-02-26T08:56:44.005Z,96839.92
2019-02-26T08:59:10.431Z,96836.20
2019-02-26T09:01:36.865Z,96828.75
2019-02-26T09:04:03.412Z,96836.05
2019-02-26T09:06:30.039Z,96828.73
2019-02-26T09:08:57.924Z,96827.30
2019-02-26T09:11:26.223Z,96829.63
2019-02-26T09:13:53.248Z,96819.55
2019-02-26T09:16:22.264Z,96819.23
2019-02-26T09:18:49.170Z,96816.64
2019-02-26T09:21:15.633Z,96820.57
2019-02-26T09:23:42.139Z,96818.66
2019-02-26T09:26:08.779Z,96814.59
2019-02-26T09:28:35.214Z,96810.20
2019-02-26T09:31:04.209Z,96806.62
2019-02-26T09:33:32.706Z,96810.84
2019-02-26T09:35:59.153Z,96812.14
2019-02-26T09:38:25.760Z,96808.23
2019-02-26T09:40:54.596Z,96809.23
2019-02-26T09:43:22.528Z,96811.65
2019-02-26T09:45:50.605Z,96806.27
2019-02-26T09:48:19.421Z,96809.86
2019-02-26T09:50:48.305Z,96804.84
2019-02-26T09:53:14.702Z,96802.22
2019-02-26T09:55:41.446Z,96801.73
2019-02-26T09:58:09.005Z,96802.37
2019-02-26T10:00:35.437Z,96801.72
2019-02-26T10:03:03.036Z,96795.53
2019-02-26T10:05:30.455Z,96791.80
2019-02-26T10:08:02.034Z,96786.67
2019-02-26T10:10:29.170Z,96787.31
2019-02-26T10:12:57.330Z,96787.97
2019-02-26T10:15:23.662Z,96784.00
2019-02-26T10:17:50.097Z,96779.59
2019-02-26T10:20:22.801Z,96774.90
2019-02-26T10:22:49.414Z,96771.09
2019-02-26T10:25:16.156Z,96775.70
2019-02-26T10:27:43.595Z,96771.73
2019-02-26T10:30:14.419Z,96768.67
2019-02-26T10:32:44.036Z,96764.02
2019-02-26T10:35:15.895Z,96764.02
2019-02-26T10:37:43.739Z,96763.44
2019-02-26T10:40:12.150Z,96763.44
2019-02-26T10:42:39.967Z,96761.92
2019-02-26T10:45:08.662Z,96754.64
2019-02-26T10:47:35.297Z,96760.85
2019-02-26T10:50:01.893Z,96755.77
2019-02-26T10:52:28.784Z,96741.28
2019-02-26T10:54:55.396Z,96751.67
2019-02-26T10:57:21.911Z,96744.52
2019-02-26T10:59:48.447Z,96744.52
2019-02-26T11:02:17.289Z,96747.54
2019-02-26T11:04:43.927Z,96752.73
2019-02-26T11:07:14.121Z,96754.14
2019-02-26T11:09:40.222Z,96749.59
2019-02-26T11:12:08.560Z,96749.52
2019-02-26T11:14:36.431Z,96750.41
2019-02-26T11:17:03.523Z,96753.06
2019-02-26T11:19:33.847Z,96738.50
2019-02-26T11:22:00.860Z,96747.46
2019-02-26T11:24:28.795Z,96738.65
2019-02-26T11:26:55.343Z,96738.41
2019-02-26T11:29:21.830Z,96738.27
2019-02-26T11:31:49.739Z,96727.47
2019-02-26T11:34:16.334Z,96734.84
2019-02-26T11:36:42.869Z,96727.57
2019-02-26T11:39:11.920Z,96728.26
2019-02-26T11:41:38.198Z,96723.84
2019-02-26T11:44:10.031Z,96721.85
2019-02-26T11:46:34.404Z,96718.23
2019-02-26T11:49:01.200Z,96723.94
2019-02-26T11:51:36.599Z,96720.31
2019-02-26T11:53:56.100Z,96718.76
2019-02-26T11:56:25.159Z,96711.80
2019-02-26T11:58:51.116Z,96711.80
2019-02-26T12:01:17.854Z,96710.49
2019-02-26T12:03:44.604Z,96706.23
2019-02-26T12:06:13.908Z,96703.12
2019-02-26T12:08:42.412Z,96700.21
2019-02-26T12:11:13.503Z,96695.91
2019-02-26T12:13:39.539Z,96690.52
2019-02-26T12:16:05.906Z,96693.29
2019-02-26T12:18:36.734Z,96688.42
2019-02-26T12:21:05.369Z,96679.06
2019-02-26T12:23:31.322Z,96686.25
2019-02-26T12:25:59.264Z,96679.72
2019-02-26T12:28:28.311Z,96679.16
2019-02-26T12:30:54.618Z,96666.69
2019-02-26T12:33:21.055Z,96666.62
2019-02-26T12:35:47.583Z,96665.91
2019-02-26T12:38:20.735Z,96658.27
2019-02-26T12:40:44.715Z,96655.53
2019-02-26T12:43:12.523Z,96657.84
2019-02-26T12:45:40.665Z,96656.23
2019-02-26T12:48:10.213Z,96648.05
2019-02-26T12:50:36.634Z,96646.33
2019-02-26T12:53:05.317Z,96636.44
2019-02-26T12:55:35.104Z,96629.76
2019-02-26T12:58:00.237Z,96631.59
2019-02-26T13:00:26.668Z,96629.15
2019-02-26T13:02:54.942Z,96621.02
2019-02-26T13:05:23.022Z,96616.54
2019-02-26T13:07:49.868Z,96619.82
2019-02-26T13:10:22.296Z,96609.37
2019-02-26T13:12:53.856Z,96607.52
2019-02-26T13:15:22.983Z,96608.45
2019-02-26T13:17:54.173Z,96606.23
2019-02-26T13:20:23.835Z,96597.72
2019-02-26T13:22:50.277Z,96594.92
2019-02-26T13:25:17.843Z,96597.89
2019-02-26T13:27:48.085Z,96596.88
2019-02-26T13:30:19.503Z,96596.58
2019-02-26T13:33:05.341Z,96597.38
2019-02-26T13:35:14.519Z,96585.61
2019-02-26T13:37:42.442Z,96590.59
2019-02-26T13:40:14.453Z,96594.19
2019-02-26T13:42:40.991Z,96586.31
2019-02-26T13:45:10.850Z,96590.61
2019-02-26T13:47:37.543Z,96581.84
2019-02-26T13:50:10.505Z,96585.17
2019-02-26T13:52:38.807Z,96582.97
2019-02-26T13:55:08.108Z,96580.41
2019-02-26T13:57:34.747Z,96579.96
2019-02-26T14:00:01.287Z,96578.42
2019-02-26T14:02:27.719Z,96574.48
2019-02-26T14:04:54.258Z,96568.47
2019-02-26T14:07:20.790Z,96569.07
2019-02-26T14:09:47.220Z,96571.41
2019-02-26T14:12:13.962Z,96569.50
2019-02-26T14:14:40.706Z,96564.47
2019-02-26T14:17:07.136Z,96573.08
2019-02-26T14:19:33.569Z,96562.33
2019-02-26T14:22:01.643Z,96564.96
2019-02-26T14:24:28.278Z,96561.03
2019-02-26T14:26:55.948Z,96561.48
2019-02-26T14:29:22.477Z,96540.11
2019-02-26T14:31:48.910Z,96553.13
2019-02-26T14:34:15.572Z,96555.61
2019-02-26T14:36:42.086Z,96550.89
2019-02-26T14:39:10.466Z,96550.95
2019-02-26T14:41:37.208Z,96546.78
2019-02-26T14:44:03.742Z,96543.05
2019-02-26T14:46:30.631Z,96540.23
2019-02-26T14:48:57.221Z,96534.08
2019-02-26T14:51:23.758Z,96532.98
2019-02-26T14:53:50.192Z,96537.74
2019-02-26T14:56:16.736Z,96531.61
2019-02-26T14:58:43.367Z,96534.23
2019-02-26T15:01:10.004Z,96531.76
2019-02-26T15:03:36.746Z,96524.25
2019-02-26T15:06:03.311Z,96527.23
2019-02-26T15:08:29.817Z,96521.22
2019-02-26T15:10:56.560Z,96521.64
2019-02-26T15:13:23.093Z,96513.09
2019-02-26T15:15:49.632Z,96523.53
2019-02-26T15:18:16.166Z,96525.54
2019-02-26T15:20:44.236Z,96521.00
2019-02-26T15:23:10.671Z,96518.77
2019-02-26T15:25:37.924Z,96522.83
2019-02-26T15:28:05.528Z,96516.61
2019-02-26T15:30:32.224Z,96518.59
2019-02-26T15:32:58.657Z,96517.00
2019-02-26T15:35:25.500Z,96516.20
2019-02-26T15:37:52.039Z,96516.30
2019-02-26T15:40:20.833Z,96510.44
2019-02-26T15:42:52.374Z,96518.16
2019-02-26T15:45:24.021Z,96516.63
2019-02-26T15:47:50.777Z,96516.28
2019-02-26T15:50:18.234Z,96517.19
2019-02-26T15:52:44.666Z,96515.77
2019-02-26T15:55:13.764Z,96519.23
2019-02-26T15:57:40.400Z,96514.47
2019-02-26T16:00:10.994Z,96518.87
2019-02-26T16:02:37.570Z,96516.23
2019-02-26T16:05:06.974Z,96518.74
2019-02-26T16:07:33.409Z,96514.55
2019-02-26T16:09:59.945Z,96510.64
2019-02-26T16:12:26.384Z,96512.88
2019-02-26T16:14:52.912Z,96508.80
2019-02-26T16:17:19.373Z,96515.51
2019-02-26T16:19:45.886Z,96515.33
2019-02-26T16:22:12.525Z,96510.41
2019-02-26T16:24:39.063Z,96506.10
2019-02-26T16:27:05.667Z,96508.52
2019-02-26T16:29:32.128Z,96509.67
2019-02-26T16:31:58.563Z,96520.19
2019-02-26T16:34:25.199Z,96519.90
2019-02-26T16:36:51.736Z,96521.65
2019-02-26T16:39:18.170Z,96518.14
2019-02-26T16:41:44.602Z,96520.50
2019-02-26T16:44:11.343Z,96519.22
2019-02-26T16:46:39.568Z,96522.70
2019-02-26T16:49:06.466Z,96511.68
2019-02-26T16:51:32.900Z,96517.00
2019-02-26T16:53:59.744Z,96516.39
2019-02-26T16:56:26.276Z,96512.38
2019-02-26T16:58:54.143Z,96509.03
2019-02-26T17:01:22.485Z,96512.58
2019-02-26T17:03:49.058Z,96521.94
2019-02-26T17:06:15.594Z,96516.14
2019-02-26T17:08:42.027Z,96514.79
2019-02-26T17:11:08.460Z,96508.66
2019-02-26T17:13:35.100Z,96506.62
2019-02-26T17:16:01.638Z,96512.50
2019-02-26T17:18:29.299Z,96515.59
2019-02-26T17:20:56.873Z,96510.86
2019-02-26T17:23:23.906Z,96518.38
2019-02-26T17:25:50.446Z,96514.72
2019-02-26T17:28:17.086Z,96506.35
2019-02-26T17:30:43.932Z,96510.87
2019-02-26T17:33:13.205Z,96512.09
2019-02-26T17:35:39.148Z,96511.33
2019-02-26T17:38:05.684Z,96511.73
2019-02-26T17:40:36.375Z,96520.49
2019-02-26T17:43:00.599Z,96519.58
2019-02-26T17:45:31.413Z,96515.50
2019-02-26T17:47:57.868Z,96517.89
2019-02-26T17:50:36.795Z,96524.91
2019-02-26T17:53:03.221Z,96534.38
2019-02-26T17:55:29.766Z,96531.65
2019-02-26T17:57:56.300Z,96521.94
2019-02-26T18:00:25.121Z,96527.61
2019-02-26T18:02:51.623Z,96529.48
2019-02-26T18:05:19.900Z,96534.41
2019-02-26T18:07:46.436Z,96544.48
2019-02-26T18:10:15.774Z,96537.77
2019-02-26T18:12:42.682Z,96533.93
2019-02-26T18:15:11.060Z,96528.47
2019-02-26T18:17:37.687Z,96539.91
2019-02-26T18:20:07.781Z,96533.67
2019-02-26T18:22:34.253Z,96535.94
2019-02-26T18:25:00.994Z,96544.75
2019-02-26T18:27:30.256Z,96544.44
2019-02-26T18:29:56.117Z,96542.83
2019-02-26T18:32:22.651Z,96548.72
2019-02-26T18:34:49.288Z,96538.77
2019-02-26T18:37:17.706Z,96545.49
2019-02-26T18:39:44.308Z,96534.05
2019-02-26T18:42:10.841Z,96540.89
2019-02-26T18:44:37.319Z,96544.46
2019-02-26T18:47:04.816Z,96541.45
2019-02-26T18:49:32.189Z,96533.53
2019-02-26T18:51:58.623Z,96539.59
2019-02-26T18:54:25.073Z,96537.62
2019-02-26T18:56:51.592Z,96542.69
2019-02-26T18:59:21.209Z,96544.59
2019-02-26T19:01:46.408Z,96547.17
2019-02-26T19:04:16.263Z,96544.67
2019-02-26T19:06:43.265Z,96544.80
2019-02-26T19:09:12.281Z,96539.64
2019-02-26T19:11:38.897Z,96542.67
2019-02-26T19:14:08.878Z,96542.36
2019-02-26T19:16:33.742Z,96538.33
2019-02-26T19:19:00.247Z,96542.05
2019-02-26T19:21:26.788Z,96541.89
2019-02-26T19:23:53.216Z,96539.38
2019-02-26T19:26:19.674Z,96537.84
2019-02-26T19:28:46.185Z,96544.67
2019-02-26T19:31:12.736Z,96541.83
2019-02-26T19:33:39.235Z,96541.63
2019-02-26T19:36:05.848Z,96544.67
2019-02-26T19:38:32.433Z,96539.91
2019-02-26T19:41:02.469Z,96535.73
2019-02-26T19:43:28.983Z,96536.48
2019-02-26T19:45:55.830Z,96539.09
2019-02-26T19:48:22.371Z,96542.08
2019-02-26T19:50:49.012Z,96542.80
2019-02-26T19:53:19.227Z,96543.05
2019-02-26T19:55:49.768Z,96536.53
2019-02-26T19:58:16.290Z,96536.53
2019-02-26T20:00:42.826Z,96538.34
2019-02-26T20:03:09.262Z,96542.98
2019-02-26T20:05:35.796Z,96533.81
2019-02-26T20:08:04.884Z,96534.31
2019-02-26T20:10:30.917Z,96534.75
2019-02-26T20:13:00.558Z,96525.99
2019-02-26T20:15:26.141Z,96532.45
2019-02-26T20:17:52.674Z,96531.15
2019-02-26T20:20:20.761Z,96531.39
2019-02-26T20:22:47.300Z,96537.35
2019-02-26T20:25:18.429Z,96537.35
2019-02-26T20:27:45.169Z,96532.56
2019-02-26T20:30:14.879Z,96535.68
2019-02-26T20:32:41.518Z,96531.56
2019-02-26T20:35:11.930Z,96530.25
2019-02-26T20:37:38.378Z,96523.41
2019-02-26T20:40:08.414Z,96526.88
2019-02-26T20:42:34.928Z,96524.47
2019-02-26T20:45:01.465Z,96525.18
2019-02-26T20:47:31.327Z,96526.16
2019-02-26T20:49:56.382Z,96525.77
2019-02-26T20:52:22.918Z,96520.59
2019-02-26T20:54:49.760Z,96527.54
2019-02-26T20:57:16.296Z,96528.05
2019-02-26T20:59:42.729Z,96522.88
2019-02-26T21:02:09.163Z,96525.56
2019-02-26T21:04:35.697Z,96512.31
2019-02-26T21:07:02.234Z,96512.31
2019-02-26T21:09:28.669Z,96512.27
2019-02-26T21:11:55.860Z,96512.86
2019-02-26T21:14:22.866Z,96517.84
2019-02-26T21:16:53.454Z,96519.28
2019-02-26T21:19:17.686Z,96523.19
2019-02-26T21:21:44.112Z,96510.97
2019-02-26T21:24:10.753Z,96518.23
2019-02-26T21:26:37.288Z,96521.94
2019-02-26T21:29:06.277Z,96520.50
2019-02-26T21:31:32.214Z,96521.58
2019-02-26T21:33:58.739Z,96521.58
2019-02-26T21:36:27.752Z,96523.45
2019-02-26T21:38:54.079Z,96526.95
2019-02-26T21:41:21.026Z,96520.86
2019-02-26T21:43:48.985Z,96524.82
2019-02-26T21:46:15.515Z,96521.13
2019-02-26T21:48:41.947Z,96521.13
2019-02-26T21:51:08.486Z,96517.99
2019-02-26T21:53:35.019Z,96517.99
2019-02-26T21:56:03.378Z,96526.06
2019-02-26T21:58:29.843Z,96525.22
2019-02-26T22:00:56.268Z,96525.22
2019-02-26T22:03:24.835Z,96521.45
2019-02-26T22:05:51.179Z,96521.14
2019-02-26T22:08:17.716Z,96515.88
2019-02-26T22:10:44.252Z,96515.88
2019-02-26T22:13:10.788Z,96523.95
2019-02-26T22:15:37.324Z,96523.84
2019-02-26T22:18:03.757Z,96528.23
2019-02-26T22:20:36.205Z,96531.16
2019-02-26T22:23:00.464Z,96530.84
2019-02-26T22:25:27.052Z,96532.77
2019-02-26T22:27:53.592Z,96537.56
2019-02-26T22:30:22.023Z,96532.81
2019-02-26T22:32:48.503Z,96532.81
2019-02-26T22:35:15.040Z,96537.95
2019-02-26T22:37:42.114Z,96541.20
2019-02-26T22:40:10.773Z,96536.67
2019-02-26T22:42:38.824Z,96529.09
2019-02-26T22:45:08.558Z,96529.07
2019-02-26T22:47:34.991Z,96531.03
2019-02-26T22:50:03.157Z,96523.88
2019-02-26T22:52:31.253Z,96522.73
2019-02-26T22:54:57.876Z,96518.01
2019-02-26T22:57:24.717Z,96527.58
2019-02-26T22:59:51.154Z,96523.89
2019-02-26T23:02:19.125Z,96520.46
2019-02-26T23:04:45.768Z,96528.08
2019-02-26T23:07:12.501Z,96530.80
2019-02-26T23:09:39.223Z,96524.52
2019-02-26T23:12:07.313Z,96527.73
2019-02-26T23:14:35.904Z,96532.43
2019-02-26T23:17:03.763Z,96522.20
2019-02-26T23:19:30.198Z,96516.39
2019-02-26T23:21:56.840Z,96517.69
2019-02-26T23:24:27.757Z,96519.64
2019-02-26T23:26:52.166Z,96521.28
2019-02-26T23:29:18.698Z,96518.70
2019-02-26T23:31:45.641Z,96521.91
2019-02-26T23:34:12.792Z,96517.37
2019-02-26T23:36:39.636Z,96517.37
2019-02-26T23:39:07.134Z,96513.13
2019-02-26T23:41:33.851Z,96509.59
2019-02-26T23:44:00.676Z,96516.38
2019-02-26T23:46:29.561Z,96512.19
2019-02-26T23:48:55.489Z,96507.94
2019-02-26T23:51:22.229Z,96509.23
2019-02-26T23:53:48.665Z,96499.87
2019-02-26T23:56:16.779Z,96497.28
2019-02-26T23:58:43.680Z,96492.08
